createdAt,value
2023-04-01T00:02:20.689Z,98525.15
2023-04-01T00:04:48.898Z,98529.66
2023-04-01T00:07:16.866Z,98533.11
2023-04-01T00:09:46.764Z,98534.28
2023-04-01T00:12:15.849Z,98536.09
2023-04-01T00:14:43.838Z,98533.05
2023-04-01T00:17:13.413Z,98527.06
2023-04-01T00:19:43.748Z,98526.23
2023-04-01T00:22:12.568Z,98525.09
2023-04-01T00:24:40.549Z,98520.45
2023-04-01T00:27:09.138Z,98521.27
2023-04-01T00:29:37.445Z,98519.65
2023-04-01T00:32:05.803Z,98517.02
2023-04-01T00:34:33.970Z,98513.44
2023-04-01T00:37:01.717Z,98514.64
2023-04-01T00:39:30.269Z,98513.40
2023-04-01T00:42:00.468Z,98511.27
2023-04-01T00:44:29.734Z,98508.75
2023-04-01T00:46:57.912Z,98505.30
2023-04-01T00:49:28.234Z,98503.85
2023-04-01T00:51:56.760Z,98503.90
2023-04-01T00:54:25.502Z,98504.70
2023-04-01T00:56:57.270Z,98505.98
2023-04-01T00:59:26.473Z,98501.67
2023-04-01T01:01:54.482Z,98500.39
2023-04-01T01:04:23.172Z,98500.10
2023-04-01T01:07:06.828Z,98502.89
2023-04-01T01:09:44.096Z,98506.58
2023-04-01T01:12:13.994Z,98508.05
2023-04-01T01:14:47.481Z,98510.91
2023-04-01T01:17:35.694Z,98510.95
2023-04-01T01:20:25.484Z,98512.58
2023-04-01T01:22:58.342Z,98513.79
2023-04-01T01:25:33.415Z,98511.51
2023-04-01T01:28:13.405Z,98514.77
2023-04-01T01:30:50.878Z,98510.39
2023-04-01T01:33:26.427Z,98513.79
2023-04-01T01:35:54.971Z,98522.26
2023-04-01T01:38:24.136Z,98526.55
2023-04-01T01:40:58.918Z,98530.67
2023-04-01T01:43:28.437Z,98529.57
2023-04-01T01:45:57.280Z,98532.48
2023-04-01T01:48:25.990Z,98533.54
2023-04-01T01:50:54.077Z,98533.39
2023-04-01T01:53:22.472Z,98534.06
2023-04-01T01:55:50.774Z,98534.16
2023-04-01T01:58:30.524Z,98533.88
2023-04-01T02:01:00.012Z,98534.05
2023-04-01T02:03:29.050Z,98534.02
2023-04-01T02:05:57.611Z,98536.86
2023-04-01T02:08:45.957Z,98538.08
2023-04-01T02:11:14.772Z,98536.30
2023-04-01T02:13:45.460Z,98537.34
2023-04-01T02:16:14.996Z,98534.95
2023-04-01T02:18:42.860Z,98531.95
2023-04-01T02:21:10.763Z,98534.43
2023-04-01T02:23:39.562Z,98538.20
2023-04-01T02:26:08.262Z,98537.59
2023-04-01T02:28:36.484Z,98539.73
2023-04-01T02:31:04.600Z,98540.13
2023-04-01T02:33:33.766Z,98540.52
2023-04-01T02:36:01.908Z,98539.56
2023-04-01T02:38:29.965Z,98538.06
2023-04-01T02:40:58.657Z,98538.01
2023-04-01T02:43:27.588Z,98537.79
2023-04-01T02:46:02.822Z,98538.33
2023-04-01T02:48:30.776Z,98534.84
2023-04-01T02:50:58.787Z,98535.58
2023-04-01T02:53:26.700Z,98536.45
2023-04-01T02:55:54.581Z,98531.30
2023-04-01T02:58:23.134Z,98531.13
2023-04-01T03:00:51.189Z,98528.91
2023-04-01T03:03:20.189Z,98528.13
2023-04-01T03:05:50.153Z,98518.52
2023-04-01T03:08:18.565Z,98519.37
2023-04-01T03:10:46.443Z,98518.21
2023-04-01T03:13:19.259Z,98515.99
2023-04-01T03:15:47.434Z,98515.42
2023-04-01T03:18:16.500Z,98518.76
2023-04-01T03:20:47.654Z,98516.30
2023-04-01T03:23:17.560Z,98526.43
2023-04-01T03:25:45.380Z,98528.66
2023-04-01T03:28:14.267Z,98525.77
2023-04-01T03:30:42.005Z,98535.87
2023-04-01T03:33:11.111Z,98535.14
2023-04-01T03:35:39.574Z,98535.53
2023-04-01T03:38:07.860Z,98538.02
2023-04-01T03:40:39.318Z,98535.05
2023-04-01T03:43:09.447Z,98533.81
2023-04-01T03:45:46.294Z,98537.64
2023-04-01T03:48:16.395Z,98541.91
2023-04-01T03:50:44.558Z,98539.61
2023-04-01T03:53:12.418Z,98542.31
2023-04-01T03:55:41.667Z,98549.70
2023-04-01T03:58:14.348Z,98552.39
2023-04-01T04:00:44.255Z,98552.67
2023-04-01T04:03:18.037Z,98556.64
2023-04-01T04:05:49.383Z,98568.13
2023-04-01T04:08:18.009Z,98569.97
2023-04-01T04:10:47.516Z,98575.05
2023-04-01T04:13:21.071Z,98576.89
2023-04-01T04:15:52.258Z,98577.66
2023-04-01T04:18:20.060Z,98577.06
2023-04-01T04:20:51.230Z,98574.13
2023-04-01T04:23:20.032Z,98568.98
2023-04-01T04:26:01.276Z,98566.92
2023-04-01T04:28:30.183Z,98567.09
2023-04-01T04:30:58.818Z,98572.63
2023-04-01T04:33:27.932Z,98572.47
2023-04-01T04:35:56.492Z,98570.52
2023-04-01T04:38:27.155Z,98567.73
2023-04-01T04:40:55.294Z,98565.96
2023-04-01T04:43:23.869Z,98562.27
2023-04-01T04:45:52.033Z,98565.08
2023-04-01T04:48:21.311Z,98561.40
2023-04-01T04:50:50.611Z,98562.30
2023-04-01T04:53:19.275Z,98560.95
2023-04-01T04:55:52.592Z,98563.58
2023-04-01T04:58:31.634Z,98561.61
2023-04-01T05:00:59.684Z,98557.12
2023-04-01T05:03:32.342Z,98559.02
2023-04-01T05:06:00.595Z,98562.45
2023-04-01T05:08:28.517Z,98556.11
2023-04-01T05:10:57.456Z,98551.63
2023-04-01T05:13:25.888Z,98551.91
2023-04-01T05:15:54.243Z,98555.92
2023-04-01T05:18:23.938Z,98557.55
2023-04-01T05:20:52.487Z,98553.48
2023-04-01T05:23:23.425Z,98554.78
2023-04-01T05:25:53.753Z,98556.55
2023-04-01T05:28:21.891Z,98557.64
2023-04-01T05:30:50.253Z,98558.24
2023-04-01T05:33:27.593Z,98567.21
2023-04-01T05:35:55.871Z,98572.46
2023-04-01T05:38:24.113Z,98573.80
2023-04-01T05:40:52.114Z,98576.35
2023-04-01T05:43:20.486Z,98572.32
2023-04-01T05:45:49.479Z,98575.55
2023-04-01T05:48:37.961Z,98581.90
2023-04-01T05:51:06.403Z,98582.77
2023-04-01T05:53:34.544Z,98579.90
2023-04-01T05:56:04.489Z,98579.32
2023-04-01T05:58:33.751Z,98587.77
2023-04-01T06:01:09.621Z,98587.28
2023-04-01T06:03:41.720Z,98590.27
2023-04-01T06:06:12.876Z,98590.70
2023-04-01T06:08:41.130Z,98590.47
2023-04-01T06:11:14.542Z,98585.69
2023-04-01T06:13:45.487Z,98586.20
2023-04-01T06:16:18.933Z,98582.11
2023-04-01T06:18:46.971Z,98573.55
2023-04-01T06:21:21.637Z,98571.02
2023-04-01T06:24:00.433Z,98571.29
2023-04-01T06:26:36.825Z,98561.52
2023-04-01T06:29:12.035Z,98558.69
2023-04-01T06:32:02.390Z,98563.64
2023-04-01T06:34:44.818Z,98564.47
2023-04-01T06:37:21.821Z,98557.20
2023-04-01T06:40:08.705Z,98556.22
2023-04-01T06:42:41.186Z,98556.41
2023-04-01T06:45:29.154Z,98559.89
2023-04-01T06:48:19.833Z,98564.05
2023-04-01T06:51:22.449Z,98567.55
2023-04-01T06:54:14.442Z,98566.94
2023-04-01T06:57:20.860Z,98567.01
2023-04-01T06:59:48.854Z,98571.84
2023-04-01T07:02:23.043Z,98571.88
2023-04-01T07:04:51.993Z,98567.52
2023-04-01T07:07:42.520Z,98566.21
2023-04-01T07:10:14.260Z,98565.33
2023-04-01T07:13:01.877Z,98559.56
2023-04-01T07:16:09.394Z,98561.88
2023-04-01T07:18:49.776Z,98565.02
2023-04-01T07:21:37.586Z,98568.56
2023-04-01T07:24:18.465Z,98575.38
2023-04-01T07:26:54.881Z,98576.36
2023-04-01T07:29:25.146Z,98576.38
2023-04-01T07:32:13.635Z,98574.20
2023-04-01T07:34:53.142Z,98572.05
2023-04-01T07:37:28.025Z,98569.21
2023-04-01T07:40:04.711Z,98580.40
2023-04-01T07:42:46.122Z,98579.81
2023-04-01T07:45:17.427Z,98585.15
2023-04-01T07:47:59.056Z,98587.69
2023-04-01T07:50:30.755Z,98591.64
2023-04-01T07:53:20.746Z,98597.05
2023-04-01T07:55:55.496Z,98595.77
2023-04-01T07:58:29.705Z,98595.88
2023-04-01T08:01:00.242Z,98593.00
2023-04-01T08:03:34.740Z,98596.38
2023-04-01T08:06:21.961Z,98598.59
2023-04-01T08:09:13.583Z,98600.25
2023-04-01T08:12:06.575Z,98599.36
2023-04-01T08:14:59.292Z,98599.32
2023-04-01T08:17:38.105Z,98600.19
2023-04-01T08:20:10.389Z,98600.02
2023-04-01T08:22:40.854Z,98604.79
2023-04-01T08:25:32.305Z,98611.01
2023-04-01T08:28:03.120Z,98610.26
2023-04-01T08:30:51.656Z,98608.23
2023-04-01T08:33:22.168Z,98609.88
2023-04-01T08:35:56.846Z,98611.00
2023-04-01T08:38:30.616Z,98610.19
2023-04-01T08:41:02.993Z,98610.40
2023-04-01T08:43:48.031Z,98613.92
2023-04-01T08:46:16.275Z,98614.16
2023-04-01T08:49:06.099Z,98615.95
2023-04-01T08:51:44.606Z,98613.80
2023-04-01T08:54:19.512Z,98616.94
2023-04-01T08:56:57.421Z,98610.70
2023-04-01T08:59:39.817Z,98609.89
2023-04-01T09:02:31.844Z,98604.02
2023-04-01T09:05:26.337Z,98596.90
2023-04-01T09:08:13.269Z,98595.57
2023-04-01T09:10:41.274Z,98585.63
2023-04-01T09:13:45.366Z,98580.27
2023-04-01T09:16:19.343Z,98583.39
2023-04-01T09:19:23.816Z,98580.35
2023-04-01T09:22:15.361Z,98579.50
2023-04-01T09:25:01.780Z,98583.73
2023-04-01T09:27:31.840Z,98586.71
2023-04-01T09:30:19.885Z,98584.70
2023-04-01T09:33:11.281Z,98589.05
2023-04-01T09:35:46.980Z,98589.38
2023-04-01T09:38:22.194Z,98588.80
2023-04-01T09:40:57.492Z,98587.43
2023-04-01T09:43:35.998Z,98586.77
2023-04-01T09:46:12.719Z,98583.84
2023-04-01T09:48:51.097Z,98586.29
2023-04-01T09:51:38.181Z,98580.77
2023-04-01T09:54:25.006Z,98579.84
2023-04-01T09:57:01.325Z,98574.33
2023-04-01T09:59:36.757Z,98574.75
2023-04-01T10:02:29.454Z,98573.38
2023-04-01T10:05:16.617Z,98570.96
2023-04-01T10:08:20.420Z,98565.95
2023-04-01T10:11:03.711Z,98566.88
2023-04-01T10:13:41.506Z,98563.34
2023-04-01T10:16:39.088Z,98564.23
2023-04-01T10:19:10.099Z,98562.44
2023-04-01T10:21:50.819Z,98554.83
2023-04-01T10:24:41.696Z,98555.73
2023-04-01T10:27:29.087Z,98550.73
2023-04-01T10:30:25.086Z,98551.24
2023-04-01T10:33:16.564Z,98544.64
2023-04-01T10:35:56.320Z,98535.80
2023-04-01T10:38:47.125Z,98538.20
2023-04-01T10:41:18.043Z,98535.39
2023-04-01T10:44:23.826Z,98537.81
2023-04-01T10:46:54.940Z,98542.01
2023-04-01T10:49:42.186Z,98536.56
2023-04-01T10:52:16.672Z,98539.05
2023-04-01T10:55:26.242Z,98539.35
2023-04-01T10:58:22.126Z,98541.07
2023-04-01T11:01:15.763Z,98541.35
2023-04-01T11:04:08.596Z,98539.77
2023-04-01T11:06:45.439Z,98535.70
2023-04-01T11:09:22.029Z,98531.23
2023-04-01T11:12:14.905Z,98527.95
2023-04-01T11:14:49.801Z,98534.39
2023-04-01T11:17:37.455Z,98529.92
2023-04-01T11:20:12.768Z,98524.19
2023-04-01T11:22:59.974Z,98519.45
2023-04-01T11:25:43.195Z,98520.41
2023-04-01T11:28:49.102Z,98517.39
2023-04-01T11:31:40.943Z,98514.49
2023-04-01T11:34:27.365Z,98503.27
2023-04-01T11:37:00.726Z,98504.61
2023-04-01T11:39:32.019Z,98505.67
2023-04-01T11:42:37.421Z,98504.66
2023-04-01T11:45:29.684Z,98498.27
2023-04-01T11:47:58.191Z,98498.71
2023-04-01T11:50:45.222Z,98493.95
2023-04-01T11:53:16.481Z,98495.56
2023-04-01T11:55:53.827Z,98494.63
2023-04-01T11:58:30.884Z,98488.49
2023-04-01T12:01:07.558Z,98490.82
2023-04-01T12:03:35.816Z,98483.33
2023-04-01T12:06:06.698Z,98480.45
2023-04-01T12:08:44.234Z,98478.33
2023-04-01T12:11:25.485Z,98484.88
2023-04-01T12:13:53.914Z,98485.29
2023-04-01T12:16:41.115Z,98482.45
2023-04-01T12:19:20.909Z,98480.29
2023-04-01T12:22:01.257Z,98479.48
2023-04-01T12:24:32.563Z,98473.77
2023-04-01T12:27:00.441Z,98477.01
2023-04-01T12:29:48.503Z,98475.20
2023-04-01T12:32:38.128Z,98475.14
2023-04-01T12:35:07.539Z,98476.20
2023-04-01T12:38:02.896Z,98477.76
2023-04-01T12:40:49.695Z,98473.63
2023-04-01T12:43:35.676Z,98473.91
2023-04-01T12:46:07.594Z,98471.36
2023-04-01T12:48:41.809Z,98470.40
2023-04-01T12:51:14.235Z,98471.16
2023-04-01T12:54:01.717Z,98469.67
2023-04-01T12:56:45.520Z,98466.40
2023-04-01T12:59:31.894Z,98464.89
2023-04-01T13:02:19.318Z,98463.98
2023-04-01T13:05:12.348Z,98462.19
2023-04-01T13:07:46.592Z,98461.27
2023-04-01T13:10:28.145Z,98457.70
2023-04-01T13:13:31.483Z,98458.20
2023-04-01T13:16:02.699Z,98458.32
2023-04-01T13:18:49.411Z,98458.02
2023-04-01T13:21:20.113Z,98457.44
2023-04-01T13:23:53.993Z,98454.80
2023-04-01T13:26:21.777Z,98454.27
2023-04-01T13:28:58.885Z,98449.86
2023-04-01T13:31:32.671Z,98452.70
2023-04-01T13:34:03.280Z,98448.44
2023-04-01T13:36:39.573Z,98444.79
2023-04-01T13:39:14.910Z,98447.59
2023-04-01T13:41:52.815Z,98454.89
2023-04-01T13:44:25.823Z,98454.73
2023-04-01T13:46:54.094Z,98453.39
2023-04-01T13:49:27.990Z,98451.30
2023-04-01T13:52:07.962Z,98448.77
2023-04-01T13:54:38.664Z,98454.36
2023-04-01T13:57:23.301Z,98451.08
2023-04-01T14:00:00.412Z,98456.18
2023-04-01T14:02:42.580Z,98455.33
2023-04-01T14:05:14.160Z,98453.60
2023-04-01T14:07:44.665Z,98457.29
2023-04-01T14:10:32.536Z,98461.24
2023-04-01T14:13:06.602Z,98459.45
2023-04-01T14:15:37.778Z,98461.98
2023-04-01T14:18:18.442Z,98462.48
2023-04-01T14:21:01.872Z,98460.73
2023-04-01T14:23:48.543Z,98464.08
2023-04-01T14:26:29.113Z,98458.83
2023-04-01T14:29:01.167Z,98463.40
2023-04-01T14:31:31.849Z,98464.10
2023-04-01T14:34:16.868Z,98465.02
2023-04-01T14:36:49.324Z,98463.98
2023-04-01T14:39:36.827Z,98461.06
2023-04-01T14:42:21.532Z,98465.66
2023-04-01T14:44:56.637Z,98466.40
2023-04-01T14:47:43.394Z,98468.14
2023-04-01T14:50:15.057Z,98475.39
2023-04-01T14:53:02.249Z,98477.44
2023-04-01T14:55:35.026Z,98477.14
2023-04-01T14:58:26.319Z,98478.77
2023-04-01T15:01:07.227Z,98481.28
2023-04-01T15:03:57.675Z,98481.57
2023-04-01T15:06:35.401Z,98481.61
2023-04-01T15:09:03.216Z,98485.39
2023-04-01T15:11:49.777Z,98484.73
2023-04-01T15:14:27.889Z,98487.20
2023-04-01T15:16:55.789Z,98487.89
2023-04-01T15:19:25.597Z,98489.63
2023-04-01T15:21:59.469Z,98491.22
2023-04-01T15:24:37.542Z,98495.41
2023-04-01T15:27:13.365Z,98497.70
2023-04-01T15:29:44.633Z,98500.50
2023-04-01T15:32:15.560Z,98499.80
2023-04-01T15:35:04.550Z,98507.16
2023-04-01T15:37:41.159Z,98511.65
2023-04-01T15:40:09.286Z,98513.80
2023-04-01T15:42:42.335Z,98514.31
2023-04-01T15:45:18.333Z,98517.41
2023-04-01T15:48:04.900Z,98519.92
2023-04-01T15:50:59.746Z,98521.55
2023-04-01T15:53:38.902Z,98527.47
2023-04-01T15:56:26.654Z,98528.16
2023-04-01T15:59:02.907Z,98530.16
2023-04-01T16:01:33.798Z,98535.15
2023-04-01T16:04:23.219Z,98537.17
2023-04-01T16:06:56.164Z,98540.58
2023-04-01T16:10:02.578Z,98542.90
2023-04-01T16:12:35.058Z,98547.48
2023-04-01T16:15:04.402Z,98547.85
2023-04-01T16:17:51.326Z,98555.83
2023-04-01T16:20:21.179Z,98556.84
2023-04-01T16:23:12.168Z,98556.02
2023-04-01T16:25:42.981Z,98560.07
2023-04-01T16:28:23.185Z,98560.11
2023-04-01T16:30:58.989Z,98569.05
2023-04-01T16:33:36.489Z,98565.67
2023-04-01T16:36:24.230Z,98569.38
2023-04-01T16:38:52.507Z,98575.11
2023-04-01T16:41:31.436Z,98574.58
2023-04-01T16:44:06.850Z,98581.81
2023-04-01T16:46:36.424Z,98580.48
2023-04-01T16:49:13.956Z,98586.19
2023-04-01T16:51:51.782Z,98585.09
2023-04-01T16:54:39.955Z,98585.93
2023-04-01T16:57:10.728Z,98586.92
2023-04-01T16:59:38.974Z,98588.33
2023-04-01T17:02:12.677Z,98591.30
2023-04-01T17:04:55.913Z,98596.61
2023-04-01T17:07:33.107Z,98598.09
2023-04-01T17:10:20.860Z,98601.66
2023-04-01T17:13:04.935Z,98602.88
2023-04-01T17:15:51.837Z,98605.42
2023-04-01T17:18:39.508Z,98601.37
2023-04-01T17:21:11.583Z,98599.83
2023-04-01T17:23:39.266Z,98597.42
2023-04-01T17:26:26.851Z,98594.81
2023-04-01T17:29:13.321Z,98598.88
2023-04-01T17:31:50.422Z,98605.48
2023-04-01T17:34:44.729Z,98606.09
2023-04-01T17:37:19.619Z,98609.96
2023-04-01T17:39:54.844Z,98606.54
2023-04-01T17:42:35.517Z,98606.77
2023-04-01T17:45:05.975Z,98603.52
2023-04-01T17:47:34.002Z,98605.48
2023-04-01T17:50:10.993Z,98598.45
2023-04-01T17:52:40.557Z,98603.80
2023-04-01T17:55:28.066Z,98602.84
2023-04-01T17:57:58.159Z,98598.11
2023-04-01T18:00:45.977Z,98602.09
2023-04-01T18:03:46.051Z,98605.18
2023-04-01T18:06:13.945Z,98610.55
2023-04-01T18:08:59.374Z,98613.23
2023-04-01T18:11:36.090Z,98611.58
2023-04-01T18:14:22.672Z,98608.48
2023-04-01T18:16:53.932Z,98613.63
2023-04-01T18:19:21.700Z,98616.06
2023-04-01T18:22:09.639Z,98614.23
2023-04-01T18:24:59.166Z,98610.48
2023-04-01T18:27:30.784Z,98609.42
2023-04-01T18:30:13.719Z,98609.46
2023-04-01T18:32:48.841Z,98608.69
2023-04-01T18:35:18.337Z,98609.59
2023-04-01T18:37:55.189Z,98610.64
2023-04-01T18:40:27.456Z,98607.37
2023-04-01T18:43:04.179Z,98606.56
2023-04-01T18:45:58.611Z,98607.80
2023-04-01T18:48:34.977Z,98611.77
2023-04-01T18:51:22.587Z,98613.86
2023-04-01T18:54:27.405Z,98619.91
2023-04-01T18:57:02.555Z,98615.68
2023-04-01T18:59:32.424Z,98613.14
2023-04-01T19:02:01.930Z,98612.73
2023-04-01T19:04:40.397Z,98608.00
2023-04-01T19:07:23.843Z,98605.38
2023-04-01T19:09:52.045Z,98604.64
2023-04-01T19:12:31.943Z,98606.52
2023-04-01T19:15:03.387Z,98604.25
2023-04-01T19:17:32.272Z,98609.09
2023-04-01T19:20:00.589Z,98606.98
2023-04-01T19:22:28.684Z,98607.08
2023-04-01T19:24:59.477Z,98603.62
2023-04-01T19:27:32.651Z,98606.09
2023-04-01T19:30:19.521Z,98605.39
2023-04-01T19:32:51.078Z,98603.63
2023-04-01T19:35:27.954Z,98603.39
2023-04-01T19:38:00.323Z,98604.27
2023-04-01T19:40:47.262Z,98599.38
2023-04-01T19:43:19.871Z,98607.45
2023-04-01T19:46:06.652Z,98603.50
2023-04-01T19:48:39.723Z,98603.08
2023-04-01T19:51:08.878Z,98610.16
2023-04-01T19:53:55.822Z,98610.09
2023-04-01T19:56:24.171Z,98610.21
2023-04-01T19:58:56.260Z,98608.91
2023-04-01T20:01:37.955Z,98612.15
2023-04-01T20:04:13.619Z,98611.88
2023-04-01T20:06:56.532Z,98610.63
2023-04-01T20:09:28.038Z,98611.65
2023-04-01T20:12:02.296Z,98612.32
2023-04-01T20:14:35.061Z,98610.39
2023-04-01T20:17:04.433Z,98610.50
2023-04-01T20:19:40.363Z,98609.35
2023-04-01T20:22:23.669Z,98611.60
2023-04-01T20:24:51.554Z,98615.00
2023-04-01T20:27:22.112Z,98619.63
2023-04-01T20:30:25.824Z,98625.59
2023-04-01T20:33:01.509Z,98623.20
2023-04-01T20:35:32.494Z,98627.23
2023-04-01T20:38:07.176Z,98624.85
2023-04-01T20:40:37.928Z,98626.48
2023-04-01T20:43:17.842Z,98624.46
2023-04-01T20:45:51.855Z,98621.77
2023-04-01T20:48:25.763Z,98622.63
2023-04-01T20:50:54.228Z,98623.25
2023-04-01T20:53:25.728Z,98625.70
2023-04-01T20:56:03.730Z,98625.85
2023-04-01T20:58:37.774Z,98628.78
2023-04-01T21:01:06.051Z,98628.30
2023-04-01T21:03:53.396Z,98631.15
2023-04-01T21:06:27.758Z,98631.66
2023-04-01T21:09:04.322Z,98635.78
2023-04-01T21:11:44.556Z,98637.27
2023-04-01T21:14:31.734Z,98632.09
2023-04-01T21:17:07.811Z,98634.11
2023-04-01T21:19:41.917Z,98634.34
2023-04-01T21:22:12.670Z,98635.58
2023-04-01T21:24:44.495Z,98634.97
2023-04-01T21:27:24.705Z,98633.37
2023-04-01T21:29:59.447Z,98635.45
2023-04-01T21:32:46.677Z,98629.05
2023-04-01T21:35:33.763Z,98630.12
2023-04-01T21:38:01.948Z,98631.08
2023-04-01T21:40:39.196Z,98637.34
2023-04-01T21:43:14.167Z,98634.39
2023-04-01T21:46:17.674Z,98633.86
2023-04-01T21:48:45.583Z,98633.30
2023-04-01T21:51:16.127Z,98633.38
2023-04-01T21:53:50.568Z,98634.13
2023-04-01T21:56:30.833Z,98637.92
2023-04-01T21:59:14.213Z,98634.20
2023-04-01T22:01:42.253Z,98636.05
2023-04-01T22:04:10.599Z,98638.42
2023-04-01T22:06:39.429Z,98639.90
2023-04-01T22:09:19.532Z,98638.21
2023-04-01T22:11:55.648Z,98639.17
2023-04-01T22:14:35.781Z,98639.40
2023-04-01T22:17:18.103Z,98641.68
2023-04-01T22:19:51.847Z,98641.06
2023-04-01T22:22:22.152Z,98642.04
2023-04-01T22:25:08.566Z,98643.44
2023-04-01T22:27:36.407Z,98645.44
2023-04-01T22:30:07.833Z,98644.30
2023-04-01T22:32:43.844Z,98644.06
2023-04-01T22:35:19.317Z,98644.08
2023-04-01T22:37:56.456Z,98641.04
2023-04-01T22:40:26.364Z,98638.90
2023-04-01T22:43:00.388Z,98638.83
2023-04-01T22:45:47.082Z,98638.70
2023-04-01T22:48:42.035Z,98634.73
2023-04-01T22:51:17.169Z,98637.98
2023-04-01T22:53:51.809Z,98638.63
2023-04-01T22:56:21.645Z,98639.22
2023-04-01T22:59:01.548Z,98642.31
2023-04-01T23:01:34.438Z,98639.32
2023-04-01T23:04:02.507Z,98641.58
2023-04-01T23:06:42.367Z,98639.05
2023-04-01T23:09:15.034Z,98637.61
2023-04-01T23:11:47.631Z,98638.52
2023-04-01T23:14:19.541Z,98637.31
2023-04-01T23:17:06.402Z,98635.40
2023-04-01T23:20:06.930Z,98636.94
2023-04-01T23:22:45.607Z,98632.00
2023-04-01T23:25:16.533Z,98630.15
2023-04-01T23:28:03.853Z,98628.93
2023-04-01T23:30:41.347Z,98628.34
2023-04-01T23:33:21.044Z,98631.80
2023-04-01T23:35:54.489Z,98633.61
2023-04-01T23:38:23.484Z,98631.64
2023-04-01T23:40:52.241Z,98630.65
2023-04-01T23:43:26.800Z,98634.92
2023-04-01T23:45:57.904Z,98638.02
2023-04-01T23:48:30.170Z,98637.29
2023-04-01T23:50:58.248Z,98634.23
2023-04-01T23:53:27.734Z,98640.45
2023-04-01T23:55:55.702Z,98635.61
2023-04-01T23:58:27.363Z,98637.02
